createdAt,value
2019-03-15T00:00:47.219Z,987.50
2019-03-15T00:01:47.161Z,987.47
2019-03-15T00:02:47.152Z,987.53
2019-03-15T00:03:47.148Z,987.58
2019-03-15T00:04:47.130Z,987.62
2019-03-15T00:05:47.121Z,987.55
2019-03-15T00:06:47.127Z,987.65
2019-03-15T00:07:47.091Z,987.66
2019-03-15T00:08:47.088Z,987.73
2019-03-15T00:09:47.115Z,987.72
2019-03-15T00:10:47.061Z,987.71
2019-03-15T00:11:47.104Z,987.75
2019-03-15T00:12:47.332Z,987.75
2019-03-15T00:13:47.030Z,987.70
2019-03-15T00:14:47.020Z,987.74
2019-03-15T00:15:47.025Z,987.71
2019-03-15T00:16:46.998Z,987.68
2019-03-15T00:17:47.012Z,987.69
2019-03-15T00:18:47.067Z,987.71
2019-03-15T00:19:46.963Z,987.65
2019-03-15T00:20:46.953Z,987.75
2019-03-15T00:21:46.944Z,987.72
2019-03-15T00:22:46.959Z,987.79
2019-03-15T00:23:46.919Z,987.85
2019-03-15T00:24:46.988Z,987.76
2019-03-15T00:25:46.909Z,987.81
2019-03-15T00:26:46.886Z,987.74
2019-03-15T00:27:46.877Z,987.86
2019-03-15T00:28:46.887Z,987.81
2019-03-15T00:29:46.852Z,987.87
2019-03-15T00:30:46.850Z,987.85
2019-03-15T00:31:46.850Z,987.95
2019-03-15T00:32:46.823Z,987.89
2019-03-15T00:33:46.837Z,987.91
2019-03-15T00:34:46.805Z,987.97
2019-03-15T00:35:46.785Z,987.99
2019-03-15T00:36:46.776Z,987.95
2019-03-15T00:37:46.771Z,987.93
2019-03-15T00:38:46.757Z,987.93
2019-03-15T00:39:47.458Z,987.96
2019-03-15T00:40:46.737Z,987.92
2019-03-15T00:41:46.738Z,987.95
2019-03-15T00:42:46.729Z,987.93
2019-03-15T00:43:49.374Z,987.93
2019-03-15T00:44:46.722Z,987.96
2019-03-15T00:45:46.700Z,987.88
2019-03-15T00:46:46.674Z,987.91
2019-03-15T00:47:46.661Z,987.92
2019-03-15T00:48:46.645Z,987.95
2019-03-15T00:49:47.104Z,987.96
2019-03-15T00:50:46.644Z,988.02
2019-03-15T00:51:46.614Z,987.96
2019-03-15T00:52:46.604Z,987.96
2019-03-15T00:53:46.594Z,987.94
2019-03-15T00:54:46.602Z,988.02
2019-03-15T00:55:46.574Z,987.97
2019-03-15T00:56:46.563Z,988.03
2019-03-15T00:57:46.556Z,988.07
2019-03-15T00:58:46.537Z,988.08
2019-03-15T00:59:46.559Z,988.03
2019-03-15T01:00:46.520Z,988.09
2019-03-15T01:01:46.502Z,988.10
2019-03-15T01:02:46.503Z,988.14
2019-03-15T01:03:46.481Z,988.11
2019-03-15T01:04:46.479Z,988.15
2019-03-15T01:05:46.484Z,988.16
2019-03-15T01:06:46.507Z,988.18
2019-03-15T01:07:46.455Z,988.25
2019-03-15T01:08:46.460Z,988.17
2019-03-15T01:09:46.415Z,988.22
2019-03-15T01:10:46.443Z,988.21
2019-03-15T01:11:46.392Z,988.27
2019-03-15T01:12:46.388Z,988.31
2019-03-15T01:13:46.380Z,988.28
2019-03-15T01:14:46.371Z,988.25
2019-03-15T01:15:46.379Z,988.31
2019-03-15T01:16:46.358Z,988.27
2019-03-15T01:17:46.360Z,988.26
2019-03-15T01:18:46.328Z,988.30
2019-03-15T01:19:46.307Z,988.31
2019-03-15T01:20:46.305Z,988.30
2019-03-15T01:21:46.324Z,988.33
2019-03-15T01:22:46.278Z,988.32
2019-03-15T01:23:46.280Z,988.30
2019-03-15T01:24:46.252Z,988.35
2019-03-15T01:25:46.356Z,988.42
2019-03-15T01:26:46.233Z,988.26
2019-03-15T01:27:46.240Z,988.32
2019-03-15T01:28:46.207Z,988.35
2019-03-15T01:29:46.246Z,988.35
2019-03-15T01:30:46.245Z,988.32
2019-03-15T01:31:46.182Z,988.30
2019-03-15T01:32:46.209Z,988.33
2019-03-15T01:33:46.166Z,988.36
2019-03-15T01:34:46.143Z,988.29
2019-03-15T01:35:46.966Z,988.32
2019-03-15T01:36:46.132Z,988.36
2019-03-15T01:37:46.118Z,988.29
2019-03-15T01:38:46.120Z,988.39
2019-03-15T01:39:46.142Z,988.44
2019-03-15T01:40:48.619Z,988.33
2019-03-15T01:41:46.074Z,988.43
2019-03-15T01:42:46.063Z,988.37
2019-03-15T01:43:46.083Z,988.46
2019-03-15T01:44:46.045Z,988.41
2019-03-15T01:45:46.040Z,988.41
2019-03-15T01:46:46.016Z,988.44
2019-03-15T01:47:46.016Z,988.46
2019-03-15T01:48:45.994Z,988.43
2019-03-15T01:49:46.005Z,988.43
2019-03-15T01:50:45.976Z,988.46
2019-03-15T01:51:46.017Z,988.49
2019-03-15T01:52:45.958Z,988.49
2019-03-15T01:53:45.942Z,988.52
2019-03-15T01:54:45.937Z,988.55
2019-03-15T01:55:45.927Z,988.59
2019-03-15T01:56:45.975Z,988.58
2019-03-15T01:57:45.919Z,988.56
2019-03-15T01:58:45.898Z,988.61
2019-03-15T01:59:45.876Z,988.64
2019-03-15T02:00:45.868Z,988.60
2019-03-15T02:01:45.860Z,988.57
2019-03-15T02:02:45.873Z,988.61
2019-03-15T02:03:45.836Z,988.64
2019-03-15T02:04:45.823Z,988.67
2019-03-15T02:05:45.812Z,988.65
2019-03-15T02:06:45.807Z,988.60
2019-03-15T02:07:45.797Z,988.67
2019-03-15T02:08:45.805Z,988.67
2019-03-15T02:09:45.770Z,988.67
2019-03-15T02:10:45.754Z,988.73
2019-03-15T02:11:45.767Z,988.70
2019-03-15T02:12:45.734Z,988.73
2019-03-15T02:13:45.757Z,988.72
2019-03-15T02:14:45.716Z,988.69
2019-03-15T02:15:45.731Z,988.78
2019-03-15T02:16:46.439Z,988.68
2019-03-15T02:17:45.677Z,988.74
2019-03-15T02:18:45.664Z,988.56
2019-03-15T02:19:45.678Z,988.71
2019-03-15T02:20:45.641Z,988.66
2019-03-15T02:21:45.649Z,988.64
2019-03-15T02:22:45.658Z,988.64
2019-03-15T02:23:45.619Z,988.66
2019-03-15T02:24:45.649Z,988.67
2019-03-15T02:25:45.632Z,988.76
2019-03-15T02:26:45.579Z,988.67
2019-03-15T02:27:45.571Z,988.67
2019-03-15T02:28:45.564Z,988.70
2019-03-15T02:29:45.624Z,988.84
2019-03-15T02:30:45.571Z,988.73
2019-03-15T02:31:45.668Z,988.84
2019-03-15T02:32:45.531Z,988.71
2019-03-15T02:33:45.504Z,988.71
2019-03-15T02:34:45.493Z,988.61
2019-03-15T02:35:47.095Z,988.70
2019-03-15T02:36:45.488Z,988.75
2019-03-15T02:37:45.473Z,988.64
2019-03-15T02:38:45.448Z,988.66
2019-03-15T02:39:46.186Z,988.70
2019-03-15T02:40:45.459Z,988.71
2019-03-15T02:41:45.445Z,988.76
2019-03-15T02:42:45.444Z,988.80
2019-03-15T02:43:45.982Z,988.88
2019-03-15T02:44:45.381Z,988.84
2019-03-15T02:45:45.376Z,988.89
2019-03-15T02:46:45.419Z,988.96
2019-03-15T02:47:46.327Z,988.95
2019-03-15T02:48:45.350Z,988.92
2019-03-15T02:49:45.355Z,988.90
2019-03-15T02:50:45.318Z,988.91
2019-03-15T02:51:45.332Z,988.98
2019-03-15T02:52:45.331Z,989.01
2019-03-15T02:53:45.290Z,989.00
2019-03-15T02:54:45.279Z,988.96
2019-03-15T02:55:45.277Z,988.93
2019-03-15T02:56:45.254Z,988.94
2019-03-15T02:57:45.280Z,988.93
2019-03-15T02:58:45.246Z,989.00
2019-03-15T02:59:45.306Z,988.99
2019-03-15T03:00:45.234Z,988.98
2019-03-15T03:01:45.217Z,989.03
2019-03-15T03:02:45.211Z,989.03
2019-03-15T03:03:45.202Z,989.05
2019-03-15T03:04:45.169Z,989.04
2019-03-15T03:05:45.172Z,989.02
2019-03-15T03:06:45.156Z,989.14
2019-03-15T03:07:45.252Z,989.16
2019-03-15T03:08:45.152Z,989.16
2019-03-15T03:09:45.113Z,989.13
2019-03-15T03:10:45.107Z,989.19
2019-03-15T03:11:45.098Z,989.29
2019-03-15T03:12:45.111Z,989.25
2019-03-15T03:13:45.073Z,989.25
2019-03-15T03:14:45.088Z,989.26
2019-03-15T03:15:45.053Z,989.32
2019-03-15T03:16:46.098Z,989.32
2019-03-15T03:17:45.030Z,989.27
2019-03-15T03:18:45.026Z,989.26
2019-03-15T03:19:45.034Z,989.34
2019-03-15T03:20:44.993Z,989.31
2019-03-15T03:21:45.001Z,989.40
2019-03-15T03:22:44.978Z,989.43
2019-03-15T03:23:44.974Z,989.39
2019-03-15T03:24:44.950Z,989.42
2019-03-15T03:25:44.977Z,989.39
2019-03-15T03:26:44.937Z,989.40
2019-03-15T03:27:44.925Z,989.34
2019-03-15T03:28:44.914Z,989.29
2019-03-15T03:29:44.899Z,989.36
2019-03-15T03:30:46.628Z,989.38
2019-03-15T03:31:46.004Z,989.35
2019-03-15T03:32:45.039Z,989.37
2019-03-15T03:33:44.854Z,989.35
2019-03-15T03:34:44.869Z,989.38
2019-03-15T03:35:44.885Z,989.34
2019-03-15T03:36:44.821Z,989.33
2019-03-15T03:37:45.310Z,989.39
2019-03-15T03:38:44.808Z,989.43
2019-03-15T03:39:44.786Z,989.38
2019-03-15T03:40:44.799Z,989.54
2019-03-15T03:41:44.785Z,989.49
2019-03-15T03:42:44.755Z,989.43
2019-03-15T03:43:44.748Z,989.42
2019-03-15T03:44:44.736Z,989.39
2019-03-15T03:45:44.788Z,989.36
2019-03-15T03:46:44.744Z,989.42
2019-03-15T03:47:44.705Z,989.37
2019-03-15T03:48:44.697Z,989.39
2019-03-15T03:49:44.690Z,989.38
2019-03-15T03:50:44.670Z,989.39
2019-03-15T03:51:44.658Z,989.41
2019-03-15T03:52:44.670Z,989.44
2019-03-15T03:53:44.652Z,989.41
2019-03-15T03:54:44.627Z,989.45
2019-03-15T03:55:44.614Z,989.45
2019-03-15T03:56:44.605Z,989.49
2019-03-15T03:57:44.627Z,989.49
2019-03-15T03:58:44.584Z,989.59
2019-03-15T03:59:44.578Z,989.59
2019-03-15T04:00:44.561Z,989.55
2019-03-15T04:01:44.549Z,989.57
2019-03-15T04:02:44.544Z,989.59
2019-03-15T04:03:44.549Z,989.52
2019-03-15T04:04:44.525Z,989.63
2019-03-15T04:05:44.506Z,989.57
2019-03-15T04:06:44.512Z,989.61
2019-03-15T04:07:44.484Z,989.60
2019-03-15T04:08:44.510Z,989.62
2019-03-15T04:09:44.505Z,989.62
2019-03-15T04:10:44.453Z,989.66
2019-03-15T04:11:54.766Z,989.66
2019-03-15T04:12:45.437Z,989.71
2019-03-15T04:13:44.448Z,989.63
2019-03-15T04:14:44.428Z,989.71
2019-03-15T04:15:44.400Z,989.71
2019-03-15T04:16:44.409Z,989.70
2019-03-15T04:17:44.380Z,989.74
2019-03-15T04:18:44.367Z,989.78
2019-03-15T04:19:44.394Z,989.75
2019-03-15T04:20:44.358Z,989.71
2019-03-15T04:21:44.339Z,989.72
2019-03-15T04:22:44.323Z,989.79
2019-03-15T04:23:44.321Z,989.76
2019-03-15T04:24:44.321Z,989.77
2019-03-15T04:25:44.294Z,989.75
2019-03-15T04:26:44.313Z,989.73
2019-03-15T04:27:44.266Z,989.82
2019-03-15T04:28:44.262Z,989.77
2019-03-15T04:29:44.292Z,989.81
2019-03-15T04:30:44.240Z,989.86
2019-03-15T04:31:44.230Z,989.83
2019-03-15T04:32:44.248Z,989.92
2019-03-15T04:33:44.203Z,989.86
2019-03-15T04:34:44.218Z,989.96
2019-03-15T04:35:44.237Z,989.87
2019-03-15T04:36:44.171Z,989.93
2019-03-15T04:37:44.165Z,989.99
2019-03-15T04:38:44.147Z,989.91
2019-03-15T04:39:44.189Z,989.97
2019-03-15T04:40:44.158Z,990.00
2019-03-15T04:41:44.125Z,989.97
2019-03-15T04:42:44.104Z,989.92
2019-03-15T04:43:44.110Z,989.91
2019-03-15T04:44:44.100Z,989.97
2019-03-15T04:45:44.109Z,990.00
2019-03-15T04:46:44.073Z,990.02
2019-03-15T04:47:44.059Z,989.99
2019-03-15T04:48:44.041Z,990.08
2019-03-15T04:49:44.033Z,990.09
2019-03-15T04:50:44.026Z,990.16
2019-03-15T04:51:44.025Z,990.06
2019-03-15T04:52:44.005Z,990.16
2019-03-15T04:53:44.022Z,990.11
2019-03-15T04:54:43.985Z,990.12
2019-03-15T04:55:43.984Z,990.19
2019-03-15T04:56:44.003Z,990.17
2019-03-15T04:57:43.954Z,990.16
2019-03-15T04:58:43.930Z,990.16
2019-03-15T04:59:43.919Z,990.14
2019-03-15T05:00:43.925Z,990.16
2019-03-15T05:01:43.910Z,990.17
2019-03-15T05:02:43.922Z,990.23
2019-03-15T05:03:43.880Z,990.21
2019-03-15T05:04:43.913Z,990.26
2019-03-15T05:05:43.887Z,990.29
2019-03-15T05:06:43.845Z,990.26
2019-03-15T05:07:43.836Z,990.32
2019-03-15T05:08:43.830Z,990.23
2019-03-15T05:09:43.825Z,990.30
2019-03-15T05:10:43.834Z,990.33
2019-03-15T05:11:43.791Z,990.30
2019-03-15T05:12:43.799Z,990.25
2019-03-15T05:13:43.767Z,990.31
2019-03-15T05:14:43.759Z,990.34
2019-03-15T05:15:43.856Z,990.36
2019-03-15T05:16:43.741Z,990.30
2019-03-15T05:17:43.739Z,990.28
2019-03-15T05:18:43.728Z,990.32
2019-03-15T05:19:43.716Z,990.31
2019-03-15T05:20:43.713Z,990.32
2019-03-15T05:21:43.707Z,990.29
2019-03-15T05:22:43.670Z,990.35
2019-03-15T05:23:43.672Z,990.32
2019-03-15T05:24:43.650Z,990.30
2019-03-15T05:25:43.637Z,990.35
2019-03-15T05:26:43.657Z,990.33
2019-03-15T05:27:43.621Z,990.27
2019-03-15T05:28:43.612Z,990.30
2019-03-15T05:29:43.599Z,990.34
2019-03-15T05:30:43.584Z,990.32
2019-03-15T05:31:43.625Z,990.28
2019-03-15T05:32:43.577Z,990.32
2019-03-15T05:33:43.554Z,990.38
2019-03-15T05:34:43.543Z,990.33
2019-03-15T05:35:43.546Z,990.38
2019-03-15T05:36:43.518Z,990.34
2019-03-15T05:37:43.853Z,990.35
2019-03-15T05:38:43.537Z,990.39
2019-03-15T05:39:43.488Z,990.33
2019-03-15T05:40:43.477Z,990.30
2019-03-15T05:41:43.534Z,990.28
2019-03-15T05:42:43.452Z,990.38
2019-03-15T05:43:43.446Z,990.33
2019-03-15T05:44:43.441Z,990.37
2019-03-15T05:45:43.440Z,990.32
2019-03-15T05:46:43.410Z,990.39
2019-03-15T05:47:43.403Z,990.39
2019-03-15T05:48:43.392Z,990.31
2019-03-15T05:49:43.383Z,990.38
2019-03-15T05:50:43.436Z,990.38
2019-03-15T05:51:43.357Z,990.37
2019-03-15T05:52:43.347Z,990.49
2019-03-15T05:53:43.335Z,990.40
2019-03-15T05:54:43.336Z,990.42
2019-03-15T05:55:43.340Z,990.43
2019-03-15T05:56:43.303Z,990.38
2019-03-15T05:57:43.297Z,990.40
2019-03-15T05:58:43.290Z,990.39
2019-03-15T05:59:43.267Z,990.50
2019-03-15T06:00:43.258Z,990.44
2019-03-15T06:01:43.273Z,990.43
2019-03-15T06:02:43.240Z,990.44
2019-03-15T06:03:48.373Z,990.55
2019-03-15T06:04:44.232Z,990.50
2019-03-15T06:05:43.204Z,990.52
2019-03-15T06:06:43.222Z,990.53
2019-03-15T06:07:43.184Z,990.52
2019-03-15T06:08:43.180Z,990.54
2019-03-15T06:09:43.166Z,990.57
2019-03-15T06:10:43.156Z,990.59
2019-03-15T06:11:43.233Z,990.62
2019-03-15T06:12:43.153Z,990.55
2019-03-15T06:13:43.121Z,990.57
2019-03-15T06:14:43.113Z,990.58
2019-03-15T06:15:43.118Z,990.53
2019-03-15T06:16:43.088Z,990.58
2019-03-15T06:17:43.123Z,990.60
2019-03-15T06:18:43.067Z,990.61
2019-03-15T06:19:43.064Z,990.57
2019-03-15T06:20:43.048Z,990.62
2019-03-15T06:21:43.039Z,990.68
2019-03-15T06:22:43.019Z,990.66
2019-03-15T06:23:43.029Z,990.56
2019-03-15T06:24:43.008Z,990.59
2019-03-15T06:25:42.986Z,990.66
2019-03-15T06:26:42.979Z,990.59
2019-03-15T06:27:42.972Z,990.62
2019-03-15T06:28:42.983Z,990.61
2019-03-15T06:29:42.944Z,990.60
2019-03-15T06:30:42.933Z,990.59
2019-03-15T06:31:42.924Z,990.47
2019-03-15T06:32:42.915Z,990.66
2019-03-15T06:33:42.902Z,990.66
2019-03-15T06:34:42.906Z,990.64
2019-03-15T06:35:42.892Z,990.61
2019-03-15T06:36:42.876Z,990.68
2019-03-15T06:37:42.904Z,990.65
2019-03-15T06:38:42.852Z,990.69
2019-03-15T06:39:42.877Z,990.69
2019-03-15T06:40:42.826Z,990.71
2019-03-15T06:41:42.812Z,990.68
2019-03-15T06:42:42.808Z,990.64
2019-03-15T06:43:42.826Z,990.61
2019-03-15T06:44:42.788Z,990.62
2019-03-15T06:45:42.796Z,990.72
2019-03-15T06:46:42.770Z,990.71
2019-03-15T06:47:42.764Z,990.65
2019-03-15T06:48:44.989Z,990.74
2019-03-15T06:49:42.731Z,990.71
2019-03-15T06:50:42.751Z,990.68
2019-03-15T06:51:42.708Z,990.69
2019-03-15T06:52:42.695Z,990.68
2019-03-15T06:53:42.689Z,990.65
2019-03-15T06:54:42.670Z,990.71
2019-03-15T06:55:42.662Z,990.63
2019-03-15T06:56:42.671Z,990.68
2019-03-15T06:57:42.645Z,990.60
2019-03-15T06:58:42.632Z,990.57
2019-03-15T06:59:42.620Z,990.68
2019-03-15T07:00:42.614Z,990.58
2019-03-15T07:01:42.633Z,990.62
2019-03-15T07:02:42.606Z,990.63
2019-03-15T07:03:42.583Z,990.60
2019-03-15T07:04:42.570Z,990.60
2019-03-15T07:05:42.556Z,990.50
2019-03-15T07:06:42.948Z,990.59
2019-03-15T07:07:42.563Z,990.58
2019-03-15T07:08:42.572Z,990.48
2019-03-15T07:09:42.510Z,990.51
2019-03-15T07:10:44.085Z,990.54
2019-03-15T07:11:42.486Z,990.48
2019-03-15T07:12:42.486Z,990.55
2019-03-15T07:13:42.505Z,990.49
2019-03-15T07:14:42.605Z,990.46
2019-03-15T07:15:44.334Z,990.50
2019-03-15T07:16:42.431Z,990.47
2019-03-15T07:17:42.419Z,990.48
2019-03-15T07:18:42.446Z,990.43
2019-03-15T07:19:42.436Z,990.39
2019-03-15T07:20:42.398Z,990.55
2019-03-15T07:21:42.383Z,990.56
2019-03-15T07:22:42.373Z,990.55
2019-03-15T07:23:42.359Z,990.47
2019-03-15T07:24:43.761Z,990.49
2019-03-15T07:25:42.359Z,990.53
2019-03-15T07:26:43.694Z,990.55
2019-03-15T07:27:43.099Z,990.53
2019-03-15T07:28:42.302Z,990.59
2019-03-15T07:29:42.326Z,990.56
2019-03-15T07:30:42.279Z,990.55
2019-03-15T07:31:42.271Z,990.52
2019-03-15T07:32:42.268Z,990.52
2019-03-15T07:33:42.246Z,990.46
2019-03-15T07:34:42.261Z,990.49
2019-03-15T07:35:42.244Z,990.50
2019-03-15T07:36:42.211Z,990.57
2019-03-15T07:37:45.317Z,990.53
2019-03-15T07:38:42.190Z,990.56
2019-03-15T07:39:42.185Z,990.57
2019-03-15T07:40:42.201Z,990.51
2019-03-15T07:41:42.163Z,990.55
2019-03-15T07:42:42.153Z,990.56
2019-03-15T07:43:42.141Z,990.56
2019-03-15T07:44:42.129Z,990.50
2019-03-15T07:45:42.118Z,990.52
2019-03-15T07:46:42.123Z,990.60
2019-03-15T07:47:42.095Z,990.53
2019-03-15T07:48:42.084Z,990.52
2019-03-15T07:49:42.076Z,990.56
2019-03-15T07:50:42.060Z,990.56
2019-03-15T07:51:42.099Z,990.65
2019-03-15T07:52:42.057Z,990.50
2019-03-15T07:53:42.030Z,990.54
2019-03-15T07:54:42.015Z,990.58
2019-03-15T07:55:42.014Z,990.64
2019-03-15T07:56:42.001Z,990.58
2019-03-15T07:57:42.006Z,990.51
2019-03-15T07:58:41.982Z,990.63
2019-03-15T07:59:41.964Z,990.65
2019-03-15T08:00:41.950Z,990.54
2019-03-15T08:01:41.935Z,990.59
2019-03-15T08:02:41.954Z,990.60
2019-03-15T08:03:41.917Z,990.60
2019-03-15T08:04:41.912Z,990.61
2019-03-15T08:05:41.892Z,990.57
2019-03-15T08:06:41.899Z,990.54
2019-03-15T08:07:45.289Z,990.51
2019-03-15T08:08:42.015Z,990.55
2019-03-15T08:09:41.854Z,990.52
2019-03-15T08:10:41.850Z,990.47
2019-03-15T08:11:41.838Z,990.52
2019-03-15T08:12:41.828Z,990.47
2019-03-15T08:13:41.840Z,990.50
2019-03-15T08:14:41.827Z,990.55
2019-03-15T08:15:41.796Z,990.45
2019-03-15T08:16:41.773Z,990.48
2019-03-15T08:17:41.765Z,990.51
2019-03-15T08:18:41.753Z,990.49
2019-03-15T08:19:41.766Z,990.50
2019-03-15T08:20:41.724Z,990.54
2019-03-15T08:21:41.719Z,990.55
2019-03-15T08:22:41.704Z,990.52
2019-03-15T08:23:41.726Z,990.47
2019-03-15T08:24:51.089Z,990.51
2019-03-15T08:25:42.673Z,990.50
2019-03-15T08:26:41.665Z,990.53
2019-03-15T08:27:41.652Z,990.55
2019-03-15T08:28:41.639Z,990.52
2019-03-15T08:29:41.633Z,990.46
2019-03-15T08:30:41.635Z,990.56
2019-03-15T08:31:41.605Z,990.51
2019-03-15T08:32:43.500Z,990.57
2019-03-15T08:33:41.598Z,990.49
2019-03-15T08:34:41.574Z,990.56
2019-03-15T08:35:41.595Z,990.54
2019-03-15T08:36:41.553Z,990.58
2019-03-15T08:37:41.542Z,990.58
2019-03-15T08:38:47.424Z,990.58
2019-03-15T08:39:42.522Z,990.55
2019-03-15T08:40:41.507Z,990.56
2019-03-15T08:41:41.502Z,990.54
2019-03-15T08:42:41.481Z,990.57
2019-03-15T08:43:41.502Z,990.58
2019-03-15T08:44:41.468Z,990.61
2019-03-15T08:45:41.481Z,990.64
2019-03-15T08:46:41.438Z,990.62
2019-03-15T08:47:41.434Z,990.69
2019-03-15T08:48:41.449Z,990.61
2019-03-15T08:49:41.407Z,990.62
2019-03-15T08:50:41.411Z,990.64
2019-03-15T08:51:41.382Z,990.71
2019-03-15T08:52:42.238Z,990.61
2019-03-15T08:53:41.366Z,990.63
2019-03-15T08:54:41.382Z,990.67
2019-03-15T08:55:41.363Z,990.63
2019-03-15T08:56:41.337Z,990.63
2019-03-15T08:57:41.316Z,990.61
2019-03-15T08:58:41.327Z,990.64
2019-03-15T08:59:53.918Z,990.55
2019-03-15T09:00:42.304Z,990.54
2019-03-15T09:01:41.277Z,990.55
2019-03-15T09:02:41.295Z,990.57
2019-03-15T09:03:41.271Z,990.57
2019-03-15T09:04:41.269Z,990.64
2019-03-15T09:05:41.235Z,990.60
2019-03-15T09:06:41.308Z,990.56
2019-03-15T09:07:41.211Z,990.57
2019-03-15T09:08:41.211Z,990.64
2019-03-15T09:09:41.217Z,990.67
2019-03-15T09:10:41.191Z,990.69
2019-03-15T09:11:41.195Z,990.65
2019-03-15T09:12:41.175Z,990.74
2019-03-15T09:13:41.153Z,990.69
2019-03-15T09:14:41.145Z,990.67
2019-03-15T09:15:41.139Z,990.64
2019-03-15T09:16:41.122Z,990.75
2019-03-15T09:17:41.102Z,990.66
2019-03-15T09:18:41.097Z,990.71
2019-03-15T09:19:41.080Z,990.72
2019-03-15T09:20:41.171Z,990.70
2019-03-15T09:21:41.055Z,990.61
2019-03-15T09:22:41.051Z,990.56
2019-03-15T09:23:41.043Z,990.56
2019-03-15T09:24:41.022Z,990.57
2019-03-15T09:25:41.031Z,990.48
2019-03-15T09:26:41.034Z,990.51
2019-03-15T09:27:41.087Z,990.50
2019-03-15T09:28:41.005Z,990.58
2019-03-15T09:29:40.988Z,990.52
2019-03-15T09:30:40.989Z,990.51
2019-03-15T09:31:47.796Z,990.53
2019-03-15T09:32:41.954Z,990.56
2019-03-15T09:33:41.068Z,990.56
2019-03-15T09:34:40.936Z,990.54
2019-03-15T09:35:40.959Z,990.54
2019-03-15T09:36:50.158Z,990.51
2019-03-15T09:37:41.886Z,990.50
2019-03-15T09:38:40.882Z,990.49
2019-03-15T09:39:40.905Z,990.49
2019-03-15T09:40:40.895Z,990.53
2019-03-15T09:41:40.854Z,990.42
2019-03-15T09:42:40.851Z,990.52
2019-03-15T09:43:40.880Z,990.41
2019-03-15T09:44:40.807Z,990.37
2019-03-15T09:45:40.824Z,990.46
2019-03-15T09:46:40.833Z,990.49
2019-03-15T09:47:40.799Z,990.43
2019-03-15T09:48:43.730Z,990.40
2019-03-15T09:49:40.763Z,990.44
2019-03-15T09:50:51.177Z,990.36
2019-03-15T09:51:41.728Z,990.33
2019-03-15T09:52:40.723Z,990.32
2019-03-15T09:53:40.711Z,990.25
2019-03-15T09:54:40.712Z,990.34
2019-03-15T09:55:40.716Z,990.31
2019-03-15T09:56:40.685Z,990.33
2019-03-15T09:57:41.653Z,990.43
2019-03-15T09:58:40.701Z,990.44
2019-03-15T09:59:40.653Z,990.35
2019-03-15T10:00:40.683Z,990.34
2019-03-15T10:01:40.628Z,990.32
2019-03-15T10:02:41.220Z,990.38
2019-03-15T10:03:40.658Z,990.35
2019-03-15T10:04:40.591Z,990.36
2019-03-15T10:05:40.589Z,990.18
2019-03-15T10:06:40.572Z,990.27
2019-03-15T10:07:43.333Z,990.18
2019-03-15T10:08:40.590Z,990.15
2019-03-15T10:09:46.059Z,990.14
2019-03-15T10:10:41.539Z,990.23
2019-03-15T10:11:40.519Z,990.16
2019-03-15T10:12:40.506Z,990.15
2019-03-15T10:13:40.499Z,990.09
2019-03-15T10:14:40.553Z,990.01
2019-03-15T10:15:40.626Z,990.12
2019-03-15T10:16:40.475Z,990.19
2019-03-15T10:17:40.452Z,990.14
2019-03-15T10:18:40.438Z,990.13
2019-03-15T10:19:40.447Z,990.17
2019-03-15T10:20:40.440Z,990.14
2019-03-15T10:21:40.430Z,990.20
2019-03-15T10:22:40.395Z,990.19
2019-03-15T10:23:40.395Z,990.14
2019-03-15T10:24:41.127Z,990.19
2019-03-15T10:25:46.925Z,990.36
2019-03-15T10:26:41.375Z,990.24
2019-03-15T10:27:40.388Z,990.27
2019-03-15T10:28:40.335Z,990.15
2019-03-15T10:29:40.346Z,990.15
2019-03-15T10:30:40.325Z,990.13
2019-03-15T10:31:40.303Z,990.18
2019-03-15T10:32:40.286Z,990.30
2019-03-15T10:33:49.847Z,990.28
2019-03-15T10:34:41.272Z,990.35
2019-03-15T10:35:40.291Z,990.29
2019-03-15T10:36:40.242Z,990.41
2019-03-15T10:37:40.241Z,990.19
2019-03-15T10:38:40.229Z,990.22
2019-03-15T10:39:40.264Z,990.16
2019-03-15T10:40:40.216Z,990.25
2019-03-15T10:41:40.294Z,990.20
2019-03-15T10:42:41.116Z,990.11
2019-03-15T10:43:40.169Z,990.16
2019-03-15T10:44:40.182Z,990.12
2019-03-15T10:45:40.184Z,990.16
2019-03-15T10:46:40.615Z,990.17
2019-03-15T10:47:42.298Z,990.22
2019-03-15T10:48:40.108Z,990.10
2019-03-15T10:49:40.104Z,990.09
2019-03-15T10:50:40.094Z,990.09
2019-03-15T10:51:40.639Z,989.91
2019-03-15T10:52:40.074Z,990.01
2019-03-15T10:53:40.090Z,990.11
2019-03-15T10:54:40.050Z,990.02
2019-03-15T10:55:40.073Z,989.96
2019-03-15T10:56:40.078Z,990.01
2019-03-15T10:57:40.033Z,989.97
2019-03-15T10:58:40.003Z,990.03
2019-03-15T10:59:40.046Z,989.96
2019-03-15T11:00:39.978Z,990.03
2019-03-15T11:01:40.002Z,989.94
2019-03-15T11:02:40.648Z,989.86
2019-03-15T11:03:40.000Z,989.95
2019-03-15T11:04:39.964Z,989.83
2019-03-15T11:05:39.961Z,989.84
2019-03-15T11:06:39.946Z,989.81
2019-03-15T11:07:39.971Z,989.85
2019-03-15T11:08:39.919Z,989.85
2019-03-15T11:09:39.924Z,989.80
2019-03-15T11:10:39.875Z,989.80
2019-03-15T11:11:39.939Z,989.85
2019-03-15T11:12:39.858Z,989.87
2019-03-15T11:13:39.862Z,989.87
2019-03-15T11:14:39.833Z,989.91
2019-03-15T11:15:39.879Z,989.79
2019-03-15T11:16:40.596Z,989.89
2019-03-15T11:17:39.830Z,989.85
2019-03-15T11:18:39.784Z,989.92
2019-03-15T11:19:39.816Z,989.86
2019-03-15T11:20:39.802Z,989.88
2019-03-15T11:21:39.847Z,989.88
2019-03-15T11:22:39.756Z,989.68
2019-03-15T11:23:39.736Z,989.67
2019-03-15T11:24:39.739Z,989.66
2019-03-15T11:25:39.713Z,989.67
2019-03-15T11:26:39.706Z,989.78
2019-03-15T11:27:39.720Z,989.68
2019-03-15T11:28:39.676Z,989.70
2019-03-15T11:29:40.589Z,989.59
2019-03-15T11:30:39.684Z,989.56
2019-03-15T11:31:39.646Z,989.61
2019-03-15T11:32:39.661Z,989.58
2019-03-15T11:33:39.631Z,989.60
2019-03-15T11:34:39.610Z,989.62
2019-03-15T11:35:39.600Z,989.57
2019-03-15T11:36:39.607Z,989.58
2019-03-15T11:37:39.615Z,989.53
2019-03-15T11:38:39.566Z,989.51
2019-03-15T11:39:39.565Z,989.51
2019-03-15T11:40:39.547Z,989.50
2019-03-15T11:41:39.648Z,989.52
2019-03-15T11:42:39.540Z,989.52
2019-03-15T11:43:39.519Z,989.46
2019-03-15T11:44:39.508Z,989.43
2019-03-15T11:45:39.493Z,989.41
2019-03-15T11:46:39.484Z,989.47
2019-03-15T11:47:56.396Z,989.39
2019-03-15T11:48:40.456Z,989.36
2019-03-15T11:49:39.450Z,989.28
2019-03-15T11:50:39.470Z,989.24
2019-03-15T11:51:42.426Z,989.26
2019-03-15T11:52:39.449Z,989.18
2019-03-15T11:53:39.433Z,989.18
2019-03-15T11:54:39.390Z,989.13
2019-03-15T11:55:39.383Z,989.20
2019-03-15T11:56:40.079Z,989.20
2019-03-15T11:57:39.362Z,989.19
2019-03-15T11:58:39.370Z,989.17
2019-03-15T11:59:39.344Z,989.20
2019-03-15T12:00:39.362Z,989.18
2019-03-15T12:01:39.323Z,989.18
2019-03-15T12:02:40.071Z,989.22
2019-03-15T12:03:52.141Z,989.29
2019-03-15T12:04:40.291Z,989.20
2019-03-15T12:05:39.281Z,989.24
2019-03-15T12:06:39.261Z,989.19
2019-03-15T12:07:39.359Z,989.13
2019-03-15T12:08:39.248Z,989.11
2019-03-15T12:09:41.008Z,989.03
2019-03-15T12:10:40.064Z,989.08
2019-03-15T12:11:39.209Z,989.07
2019-03-15T12:12:39.250Z,988.97
2019-03-15T12:13:39.192Z,988.92
2019-03-15T12:14:41.261Z,988.94
2019-03-15T12:15:39.201Z,988.92
2019-03-15T12:16:39.223Z,988.85
2019-03-15T12:17:39.158Z,988.80
2019-03-15T12:18:39.252Z,988.78
2019-03-15T12:19:39.141Z,988.73
2019-03-15T12:20:39.109Z,988.78
2019-03-15T12:21:39.128Z,988.78
2019-03-15T12:22:39.115Z,988.80
2019-03-15T12:23:39.078Z,988.71
2019-03-15T12:24:39.145Z,988.73
2019-03-15T12:25:39.062Z,988.61
2019-03-15T12:26:40.443Z,988.59
2019-03-15T12:27:42.654Z,988.55
2019-03-15T12:28:39.025Z,988.59